createdAt,value
2024-01-11T00:00:48.205Z,64.36
2024-01-11T00:03:15.151Z,64.06
2024-01-11T00:05:43.211Z,64.38
2024-01-11T00:08:10.002Z,64.56
2024-01-11T00:10:37.295Z,64.27
2024-01-11T00:13:05.160Z,64.52
2024-01-11T00:15:31.930Z,64.41
2024-01-11T00:17:58.867Z,64.97
2024-01-11T00:20:25.658Z,64.75
2024-01-11T00:22:52.457Z,64.67
2024-01-11T00:25:19.240Z,64.75
2024-01-11T00:27:45.933Z,64.41
2024-01-11T00:30:12.691Z,64.72
2024-01-11T00:32:39.570Z,64.75
2024-01-11T00:35:07.169Z,64.73
2024-01-11T00:37:33.917Z,64.59
2024-01-11T00:40:00.598Z,64.86
2024-01-11T00:42:27.274Z,64.98
2024-01-11T00:44:54.201Z,64.99
2024-01-11T00:47:20.948Z,64.99
2024-01-11T00:49:47.692Z,65.06
2024-01-11T00:52:15.186Z,65.21
2024-01-11T00:54:42.118Z,65.29
2024-01-11T00:57:08.884Z,65.27
2024-01-11T00:59:35.668Z,65.20
2024-01-11T01:02:02.485Z,65.08
2024-01-11T01:04:29.200Z,65.68
2024-01-11T01:06:55.846Z,65.53
2024-01-11T01:09:22.523Z,65.42
2024-01-11T01:11:49.265Z,65.54
2024-01-11T01:14:16.090Z,65.34
2024-01-11T01:16:42.994Z,65.86
2024-01-11T01:19:09.904Z,65.60
2024-01-11T01:21:36.721Z,65.77
2024-01-11T01:24:03.950Z,65.74
2024-01-11T01:26:30.705Z,65.60
2024-01-11T01:28:57.502Z,65.84
2024-01-11T01:31:24.220Z,65.54
2024-01-11T01:33:50.943Z,66.14
2024-01-11T01:36:17.809Z,65.95
2024-01-11T01:38:44.713Z,66.07
2024-01-11T01:41:11.538Z,66.12
2024-01-11T01:43:38.326Z,66.09
2024-01-11T01:46:06.940Z,66.02
2024-01-11T01:48:34.312Z,66.11
2024-01-11T01:51:01.221Z,66.20
2024-01-11T01:53:29.876Z,66.32
2024-01-11T01:55:57.323Z,66.75
2024-01-11T01:58:24.234Z,66.11
2024-01-11T02:00:52.687Z,66.25
2024-01-11T02:03:19.876Z,66.24
2024-01-11T02:05:47.587Z,66.44
2024-01-11T02:08:18.774Z,66.33
2024-01-11T02:10:47.240Z,66.65
2024-01-11T02:13:14.481Z,66.71
2024-01-11T02:15:43.146Z,66.71
2024-01-11T02:18:10.019Z,66.38
2024-01-11T02:20:36.870Z,66.01
2024-01-11T02:23:09.194Z,65.81
2024-01-11T02:25:36.169Z,66.40
2024-01-11T02:28:03.008Z,66.66
2024-01-11T02:30:29.790Z,66.61
2024-01-11T02:32:56.908Z,66.32
2024-01-11T02:35:25.656Z,66.66
2024-01-11T02:37:52.810Z,66.78
2024-01-11T02:40:20.453Z,66.45
2024-01-11T02:42:47.482Z,66.51
2024-01-11T02:45:14.559Z,66.45
2024-01-11T02:47:41.846Z,66.03
2024-01-11T02:50:09.514Z,66.40
2024-01-11T02:52:36.628Z,65.84
2024-01-11T02:55:03.443Z,66.29
2024-01-11T02:57:30.373Z,66.35
2024-01-11T02:59:57.141Z,66.61
2024-01-11T03:02:24.011Z,66.38
2024-01-11T03:04:50.822Z,65.84
2024-01-11T03:07:17.614Z,66.21
2024-01-11T03:09:44.331Z,66.33
2024-01-11T03:12:11.055Z,66.28
2024-01-11T03:14:37.856Z,66.06
2024-01-11T03:17:05.980Z,65.94
2024-01-11T03:19:32.743Z,66.25
2024-01-11T03:21:59.529Z,66.27
2024-01-11T03:24:26.350Z,66.21
2024-01-11T03:26:53.049Z,65.93
2024-01-11T03:29:19.760Z,66.30
2024-01-11T03:31:46.648Z,66.20
2024-01-11T03:34:13.757Z,66.25
2024-01-11T03:36:41.383Z,66.14
2024-01-11T03:39:08.150Z,66.28
2024-01-11T03:41:35.129Z,66.29
2024-01-11T03:44:02.038Z,66.24
2024-01-11T03:46:29.051Z,65.92
2024-01-11T03:48:57.194Z,66.27
2024-01-11T03:51:24.025Z,66.46
2024-01-11T03:53:50.986Z,66.09
2024-01-11T03:56:17.841Z,66.42
2024-01-11T03:58:46.374Z,66.02
2024-01-11T04:01:13.278Z,65.96
2024-01-11T04:03:40.314Z,66.39
2024-01-11T04:06:07.728Z,66.10
2024-01-11T04:08:34.972Z,66.09
2024-01-11T04:11:08.138Z,65.61
2024-01-11T04:13:34.895Z,66.03
2024-01-11T04:16:06.263Z,66.06
2024-01-11T04:18:33.290Z,65.97
2024-01-11T04:21:00.190Z,66.25
2024-01-11T04:23:27.027Z,66.28
2024-01-11T04:25:53.757Z,66.35
2024-01-11T04:28:20.508Z,66.46
2024-01-11T04:30:47.378Z,66.29
2024-01-11T04:33:14.294Z,66.09
2024-01-11T04:35:41.235Z,66.48
2024-01-11T04:38:07.996Z,66.31
2024-01-11T04:40:34.726Z,66.32
2024-01-11T04:43:01.434Z,66.09
2024-01-11T04:45:28.089Z,66.14
2024-01-11T04:47:55.069Z,66.26
2024-01-11T04:50:23.118Z,66.33
2024-01-11T04:52:50.113Z,66.34
2024-01-11T04:55:16.805Z,66.51
2024-01-11T04:57:43.536Z,66.31
2024-01-11T05:00:10.601Z,66.45
2024-01-11T05:02:37.444Z,66.32
2024-01-11T05:05:05.018Z,65.87
2024-01-11T05:07:31.853Z,66.30
2024-01-11T05:09:58.611Z,66.57
2024-01-11T05:12:25.469Z,66.49
2024-01-11T05:14:52.225Z,66.83
2024-01-11T05:17:18.992Z,66.58
2024-01-11T05:19:45.815Z,66.97
2024-01-11T05:22:12.603Z,66.48
2024-01-11T05:24:39.320Z,66.64
2024-01-11T05:27:06.164Z,66.46
2024-01-11T05:29:33.313Z,66.45
2024-01-11T05:32:00.174Z,66.40
2024-01-11T05:34:27.075Z,66.42
2024-01-11T05:36:53.814Z,66.35
2024-01-11T05:39:20.492Z,66.42
2024-01-11T05:41:47.274Z,66.36
2024-01-11T05:44:14.462Z,66.90
2024-01-11T05:46:41.132Z,66.57
2024-01-11T05:49:08.759Z,66.69
2024-01-11T05:51:35.535Z,66.42
2024-01-11T05:54:02.196Z,65.75
2024-01-11T05:56:29.001Z,66.47
2024-01-11T05:58:55.856Z,66.39
2024-01-11T06:01:22.828Z,66.45
2024-01-11T06:03:49.734Z,66.59
2024-01-11T06:06:16.580Z,66.31
2024-01-11T06:08:44.871Z,66.63
2024-01-11T06:11:11.780Z,66.79
2024-01-11T06:13:38.478Z,66.18
2024-01-11T06:16:05.238Z,66.00
2024-01-11T06:18:32.242Z,66.08
2024-01-11T06:20:59.015Z,65.80
2024-01-11T06:23:26.917Z,66.27
2024-01-11T06:25:53.872Z,66.17
2024-01-11T06:28:20.597Z,66.12
2024-01-11T06:30:47.341Z,66.53
2024-01-11T06:33:14.312Z,66.14
2024-01-11T06:35:41.368Z,66.33
2024-01-11T06:38:09.096Z,66.20
2024-01-11T06:40:35.947Z,66.16
2024-01-11T06:43:02.641Z,66.31
2024-01-11T06:45:29.373Z,66.04
2024-01-11T06:47:56.306Z,66.19
2024-01-11T06:50:23.279Z,66.09
2024-01-11T06:52:49.963Z,65.91
2024-01-11T06:55:16.971Z,66.06
2024-01-11T06:57:43.654Z,65.98
2024-01-11T07:00:11.378Z,65.89
2024-01-11T07:02:38.202Z,66.10
2024-01-11T07:05:05.264Z,65.95
2024-01-11T07:07:31.987Z,65.81
2024-01-11T07:09:58.774Z,65.93
2024-01-11T07:12:26.688Z,65.59
2024-01-11T07:14:53.430Z,65.89
2024-01-11T07:17:20.253Z,65.64
2024-01-11T07:19:47.017Z,65.53
2024-01-11T07:22:13.826Z,65.78
2024-01-11T07:24:40.609Z,65.50
2024-01-11T07:27:08.212Z,66.36
2024-01-11T07:29:35.065Z,65.77
2024-01-11T07:32:02.078Z,65.90
2024-01-11T07:34:29.535Z,65.47
2024-01-11T07:36:57.711Z,65.76
2024-01-11T07:39:25.667Z,65.32
2024-01-11T07:41:52.538Z,65.70
2024-01-11T07:44:19.731Z,65.34
2024-01-11T07:46:52.600Z,65.29
2024-01-11T07:49:21.774Z,65.68
2024-01-11T07:51:48.797Z,65.28
2024-01-11T07:54:15.553Z,64.86
2024-01-11T07:56:42.414Z,65.50
2024-01-11T07:59:09.236Z,65.22
2024-01-11T08:01:36.773Z,65.35
2024-01-11T08:04:04.279Z,65.05
2024-01-11T08:06:31.786Z,65.29
2024-01-11T08:08:58.612Z,64.82
2024-01-11T08:11:26.132Z,64.67
2024-01-11T08:13:56.014Z,64.95
2024-01-11T08:16:22.845Z,64.71
2024-01-11T08:18:50.362Z,64.38
2024-01-11T08:21:17.213Z,63.82
2024-01-11T08:23:46.632Z,63.91
2024-01-11T08:26:15.457Z,63.83
2024-01-11T08:28:43.186Z,63.79
2024-01-11T08:31:10.120Z,64.04
2024-01-11T08:33:40.047Z,63.46
2024-01-11T08:36:08.275Z,63.81
2024-01-11T08:38:36.874Z,63.32
2024-01-11T08:41:04.731Z,63.91
2024-01-11T08:43:31.689Z,62.99
2024-01-11T08:45:58.380Z,62.77
2024-01-11T08:48:25.374Z,62.68
2024-01-11T08:50:52.345Z,63.38
2024-01-11T08:53:19.142Z,62.99
2024-01-11T08:55:47.374Z,62.29
2024-01-11T08:58:14.740Z,61.96
2024-01-11T09:00:41.673Z,62.04
2024-01-11T09:03:08.769Z,62.29
2024-01-11T09:05:35.723Z,61.85
2024-01-11T09:08:02.589Z,62.09
2024-01-11T09:10:29.309Z,62.03
2024-01-11T09:12:56.234Z,61.80
2024-01-11T09:15:23.080Z,61.59
2024-01-11T09:17:50.814Z,61.23
2024-01-11T09:20:18.139Z,60.74
2024-01-11T09:22:45.005Z,60.91
2024-01-11T09:25:11.683Z,60.46
2024-01-11T09:27:38.400Z,61.58
2024-01-11T09:30:05.857Z,60.52
2024-01-11T09:32:32.884Z,61.07
2024-01-11T09:35:00.006Z,60.60
2024-01-11T09:37:27.130Z,60.81
2024-01-11T09:39:54.130Z,60.57
2024-01-11T09:42:20.823Z,60.24
2024-01-11T09:44:48.007Z,60.21
2024-01-11T09:47:18.992Z,59.77
2024-01-11T09:49:46.965Z,60.47
2024-01-11T09:52:16.014Z,60.52
2024-01-11T09:54:43.093Z,59.45
2024-01-11T09:57:10.884Z,60.11
2024-01-11T09:59:38.154Z,60.49
2024-01-11T10:02:09.508Z,60.52
2024-01-11T10:04:36.856Z,59.96
2024-01-11T10:07:07.381Z,58.85
2024-01-11T10:09:34.452Z,59.25
2024-01-11T10:12:01.192Z,59.54
2024-01-11T10:14:28.041Z,60.04
2024-01-11T10:16:56.172Z,58.37
2024-01-11T10:19:23.325Z,59.12
2024-01-11T10:21:50.187Z,58.14
2024-01-11T10:24:21.917Z,58.39
2024-01-11T10:26:49.031Z,56.86
2024-01-11T10:29:15.895Z,56.77
2024-01-11T10:31:42.628Z,57.06
2024-01-11T10:34:09.912Z,57.16
2024-01-11T10:36:37.578Z,56.77
2024-01-11T10:39:08.709Z,55.94
2024-01-11T10:41:44.074Z,55.53
2024-01-11T10:44:22.758Z,55.67
2024-01-11T10:46:57.212Z,55.42
2024-01-11T10:49:26.607Z,54.58
2024-01-11T10:52:01.734Z,54.68
2024-01-11T10:54:30.066Z,53.71
2024-01-11T10:57:00.340Z,53.54
2024-01-11T10:59:28.184Z,53.60
2024-01-11T11:01:57.460Z,53.30
2024-01-11T11:04:24.845Z,52.88
2024-01-11T11:06:58.404Z,53.26
2024-01-11T11:09:26.897Z,52.76
2024-01-11T11:11:59.777Z,52.61
2024-01-11T11:14:26.800Z,52.10
2024-01-11T11:16:54.265Z,51.62
2024-01-11T11:19:21.950Z,52.14
2024-01-11T11:21:49.728Z,51.67
2024-01-11T11:24:20.369Z,51.60
2024-01-11T11:26:47.810Z,51.54
2024-01-11T11:29:16.739Z,51.96
2024-01-11T11:31:44.881Z,51.79
2024-01-11T11:34:15.463Z,51.60
2024-01-11T11:36:43.707Z,51.12
2024-01-11T11:39:14.828Z,51.01
2024-01-11T11:41:43.873Z,50.98
2024-01-11T11:44:16.769Z,50.67
2024-01-11T11:46:45.110Z,50.68
2024-01-11T11:49:12.377Z,50.66
2024-01-11T11:51:42.311Z,50.67
2024-01-11T11:54:15.944Z,50.00
2024-01-11T11:56:43.519Z,49.76
2024-01-11T11:59:10.898Z,50.08
2024-01-11T12:01:39.828Z,50.00
2024-01-11T12:04:09.093Z,49.90
2024-01-11T12:06:36.044Z,50.19
2024-01-11T12:09:02.821Z,49.98
2024-01-11T12:11:30.515Z,49.91
2024-01-11T12:13:59.295Z,49.85
2024-01-11T12:16:26.218Z,50.43
2024-01-11T12:18:53.135Z,49.55
2024-01-11T12:21:21.232Z,49.74
2024-01-11T12:23:50.131Z,49.27
2024-01-11T12:26:23.991Z,49.53
2024-01-11T12:28:51.714Z,49.27
2024-01-11T12:31:20.391Z,49.37
2024-01-11T12:33:47.459Z,49.38
2024-01-11T12:36:14.232Z,49.34
2024-01-11T12:38:49.926Z,49.74
2024-01-11T12:41:19.266Z,48.96
2024-01-11T12:43:46.108Z,49.21
2024-01-11T12:46:12.891Z,49.20
2024-01-11T12:48:40.102Z,48.51
2024-01-11T12:51:14.410Z,48.66
2024-01-11T12:53:48.053Z,49.54
2024-01-11T12:56:16.625Z,49.16
2024-01-11T12:58:44.081Z,49.11
2024-01-11T13:01:11.960Z,49.27
2024-01-11T13:03:40.326Z,48.51
2024-01-11T13:06:07.712Z,48.98
2024-01-11T13:08:37.765Z,48.17
2024-01-11T13:11:08.325Z,48.28
2024-01-11T13:13:38.646Z,48.63
2024-01-11T13:16:12.558Z,48.08
2024-01-11T13:18:39.721Z,48.60
2024-01-11T13:21:08.050Z,48.72
2024-01-11T13:23:35.136Z,48.99
2024-01-11T13:26:03.536Z,48.98
2024-01-11T13:28:30.529Z,47.97
2024-01-11T13:30:58.176Z,48.79
2024-01-11T13:33:25.343Z,48.74
2024-01-11T13:35:52.441Z,48.97
2024-01-11T13:38:21.644Z,48.88
2024-01-11T13:40:50.804Z,49.27
2024-01-11T13:43:18.481Z,49.16
2024-01-11T13:45:46.083Z,49.01
2024-01-11T13:48:12.957Z,49.48
2024-01-11T13:50:39.873Z,49.43
2024-01-11T13:53:07.634Z,49.80
2024-01-11T13:55:41.356Z,50.46
2024-01-11T13:58:09.190Z,49.77
2024-01-11T14:00:36.327Z,51.04
2024-01-11T14:03:04.885Z,50.74
2024-01-11T14:05:31.975Z,50.85
2024-01-11T14:08:00.764Z,50.60
2024-01-11T14:10:28.500Z,51.16
2024-01-11T14:12:55.703Z,50.26
2024-01-11T14:15:22.592Z,51.16
2024-01-11T14:17:51.464Z,50.79
2024-01-11T14:20:18.905Z,50.64
2024-01-11T14:22:50.340Z,51.39
2024-01-11T14:25:19.000Z,51.16
2024-01-11T14:27:46.004Z,51.07
2024-01-11T14:30:14.826Z,50.98
2024-01-11T14:32:44.962Z,50.70
2024-01-11T14:35:12.511Z,50.85
2024-01-11T14:37:41.161Z,50.75
2024-01-11T14:40:12.090Z,51.33
2024-01-11T14:42:39.045Z,51.73
2024-01-11T14:45:06.752Z,51.33
2024-01-11T14:47:33.951Z,51.96
2024-01-11T14:50:01.028Z,52.14
2024-01-11T14:52:27.757Z,51.71
2024-01-11T14:54:54.519Z,51.00
2024-01-11T14:57:22.359Z,51.54
2024-01-11T14:59:49.433Z,51.41
2024-01-11T15:02:16.993Z,51.16
2024-01-11T15:04:43.803Z,52.22
2024-01-11T15:07:10.692Z,52.06
2024-01-11T15:09:40.001Z,52.12
2024-01-11T15:12:08.335Z,51.16
2024-01-11T15:14:35.268Z,51.28
2024-01-11T15:17:03.667Z,52.17
2024-01-11T15:19:31.238Z,51.07
2024-01-11T15:21:57.988Z,51.33
2024-01-11T15:24:24.696Z,51.79
2024-01-11T15:26:51.630Z,51.73
2024-01-11T15:29:18.763Z,51.78
2024-01-11T15:31:50.632Z,52.06
2024-01-11T15:34:17.654Z,51.39
2024-01-11T15:36:44.809Z,51.55
2024-01-11T15:39:21.165Z,52.35
2024-01-11T15:41:58.532Z,52.19
2024-01-11T15:44:27.963Z,52.69
2024-01-11T15:46:56.244Z,52.76
2024-01-11T15:49:23.816Z,53.08
2024-01-11T15:51:50.594Z,53.31
2024-01-11T15:54:17.322Z,52.96
2024-01-11T15:56:44.153Z,52.22
2024-01-11T15:59:10.971Z,53.44
2024-01-11T16:01:50.330Z,52.06
2024-01-11T16:04:24.098Z,52.49
2024-01-11T16:06:51.196Z,53.51
2024-01-11T16:09:18.125Z,53.38
2024-01-11T16:11:46.251Z,53.15
2024-01-11T16:14:13.048Z,53.05
2024-01-11T16:16:39.789Z,54.09
2024-01-11T16:19:06.716Z,54.05
2024-01-11T16:21:33.693Z,53.65
2024-01-11T16:24:03.113Z,52.79
2024-01-11T16:26:30.675Z,53.59
2024-01-11T16:28:58.143Z,53.09
2024-01-11T16:31:25.138Z,53.02
2024-01-11T16:33:51.893Z,53.69
2024-01-11T16:36:19.141Z,53.45
2024-01-11T16:38:46.414Z,53.86
2024-01-11T16:41:13.541Z,54.54
2024-01-11T16:43:40.994Z,54.25
2024-01-11T16:46:08.819Z,53.85
2024-01-11T16:48:35.839Z,54.62
2024-01-11T16:51:02.957Z,54.61
2024-01-11T16:53:29.760Z,54.84
2024-01-11T16:55:56.679Z,54.18
2024-01-11T16:58:23.445Z,54.37
2024-01-11T17:00:50.250Z,54.00
2024-01-11T17:03:17.489Z,54.15
2024-01-11T17:05:44.510Z,55.33
2024-01-11T17:08:11.312Z,55.42
2024-01-11T17:10:39.314Z,55.54
2024-01-11T17:13:06.068Z,55.42
2024-01-11T17:15:33.224Z,55.11
2024-01-11T17:18:00.282Z,55.79
2024-01-11T17:20:27.205Z,55.01
2024-01-11T17:22:55.161Z,56.21
2024-01-11T17:25:22.563Z,55.99
2024-01-11T17:27:49.500Z,56.18
2024-01-11T17:30:16.547Z,56.49
2024-01-11T17:32:43.580Z,55.66
2024-01-11T17:35:10.563Z,55.77
2024-01-11T17:37:37.585Z,55.21
2024-01-11T17:40:08.229Z,56.16
2024-01-11T17:42:35.146Z,56.98
2024-01-11T17:45:02.348Z,55.57
2024-01-11T17:47:29.567Z,56.95
2024-01-11T17:49:56.412Z,55.91
2024-01-11T17:52:23.122Z,55.90
2024-01-11T17:54:49.903Z,57.01
2024-01-11T17:57:16.570Z,56.85
2024-01-11T17:59:46.400Z,56.75
2024-01-11T18:02:13.297Z,56.04
2024-01-11T18:04:42.260Z,56.48
2024-01-11T18:07:09.138Z,57.16
2024-01-11T18:09:36.581Z,57.23
2024-01-11T18:12:03.503Z,56.82
2024-01-11T18:14:30.228Z,57.07
2024-01-11T18:16:57.002Z,57.54
2024-01-11T18:19:23.977Z,57.56
2024-01-11T18:21:50.744Z,56.45
2024-01-11T18:24:18.663Z,57.32
2024-01-11T18:26:45.538Z,56.60
2024-01-11T18:29:12.440Z,56.35
2024-01-11T18:31:39.962Z,56.54
2024-01-11T18:34:07.278Z,57.02
2024-01-11T18:36:44.943Z,57.19
2024-01-11T18:39:11.747Z,57.58
2024-01-11T18:41:38.926Z,56.95
2024-01-11T18:44:05.773Z,57.38
2024-01-11T18:46:32.581Z,56.85
2024-01-11T18:48:59.436Z,57.42
2024-01-11T18:51:27.461Z,57.33
2024-01-11T18:53:55.096Z,57.43
2024-01-11T18:56:21.864Z,57.01
2024-01-11T18:58:48.558Z,58.26
2024-01-11T19:01:15.260Z,57.75
2024-01-11T19:03:42.093Z,58.22
2024-01-11T19:06:09.245Z,57.54
2024-01-11T19:08:37.201Z,57.81
2024-01-11T19:11:04.268Z,58.59
2024-01-11T19:13:31.039Z,58.00
2024-01-11T19:15:57.758Z,57.98
2024-01-11T19:18:24.759Z,59.04
2024-01-11T19:20:54.800Z,59.16
2024-01-11T19:23:26.750Z,58.78
2024-01-11T19:25:57.561Z,58.97
2024-01-11T19:28:25.194Z,59.62
2024-01-11T19:30:52.505Z,59.63
2024-01-11T19:33:19.563Z,59.16
2024-01-11T19:35:46.641Z,59.36
2024-01-11T19:38:13.845Z,59.53
2024-01-11T19:40:43.539Z,60.26
2024-01-11T19:43:10.533Z,59.43
2024-01-11T19:45:37.542Z,60.14
2024-01-11T19:48:05.207Z,60.24
2024-01-11T19:50:34.414Z,60.44
2024-01-11T19:53:01.913Z,60.14
2024-01-11T19:55:28.643Z,60.06
2024-01-11T19:57:55.409Z,60.15
2024-01-11T20:00:22.971Z,60.82
2024-01-11T20:02:50.779Z,60.55
2024-01-11T20:05:17.591Z,60.34
2024-01-11T20:07:44.795Z,60.95
2024-01-11T20:10:12.511Z,60.67
2024-01-11T20:12:39.449Z,60.54
2024-01-11T20:15:08.524Z,61.10
2024-01-11T20:17:35.438Z,60.79
2024-01-11T20:20:02.380Z,60.59
2024-01-11T20:22:29.336Z,60.99
2024-01-11T20:24:56.302Z,61.08
2024-01-11T20:27:23.621Z,61.39
2024-01-11T20:29:50.544Z,61.30
2024-01-11T20:32:17.663Z,61.45
2024-01-11T20:34:44.798Z,61.81
2024-01-11T20:37:11.805Z,61.16
2024-01-11T20:39:39.308Z,61.19
2024-01-11T20:42:06.427Z,60.93
2024-01-11T20:44:36.694Z,61.08
2024-01-11T20:47:04.563Z,61.48
2024-01-11T20:49:31.407Z,61.09
2024-01-11T20:52:00.442Z,61.31
2024-01-11T20:54:27.760Z,61.53
2024-01-11T20:56:56.153Z,61.73
2024-01-11T20:59:23.176Z,61.58
2024-01-11T21:01:50.149Z,60.88
2024-01-11T21:04:16.889Z,60.89
2024-01-11T21:06:45.318Z,61.39
2024-01-11T21:09:13.678Z,61.39
2024-01-11T21:11:41.749Z,62.07
2024-01-11T21:14:08.958Z,61.95
2024-01-11T21:16:35.783Z,61.79
2024-01-11T21:19:06.444Z,62.50
2024-01-11T21:21:34.202Z,62.49
2024-01-11T21:24:02.593Z,61.88
2024-01-11T21:26:29.629Z,61.94
2024-01-11T21:28:57.143Z,61.99
2024-01-11T21:31:28.771Z,62.22
2024-01-11T21:33:55.969Z,62.26
2024-01-11T21:36:25.901Z,62.52
2024-01-11T21:38:56.002Z,62.42
2024-01-11T21:41:23.989Z,62.96
2024-01-11T21:43:52.266Z,62.54
2024-01-11T21:46:27.009Z,62.85
2024-01-11T21:48:54.393Z,63.21
2024-01-11T21:51:21.220Z,63.47
2024-01-11T21:53:47.957Z,63.53
2024-01-11T21:56:14.821Z,63.24
2024-01-11T21:58:42.014Z,63.38
2024-01-11T22:01:08.835Z,63.67
2024-01-11T22:03:37.041Z,63.84
2024-01-11T22:06:04.880Z,64.01
2024-01-11T22:08:32.047Z,63.68
2024-01-11T22:10:58.918Z,63.96
2024-01-11T22:13:25.631Z,64.19
2024-01-11T22:15:52.621Z,64.37
2024-01-11T22:18:19.496Z,64.53
2024-01-11T22:20:46.527Z,64.59
2024-01-11T22:23:13.322Z,64.28
2024-01-11T22:25:40.173Z,64.58
2024-01-11T22:28:06.920Z,64.69
2024-01-11T22:30:34.409Z,64.45
2024-01-11T22:33:02.889Z,64.78
2024-01-11T22:35:29.779Z,64.53
2024-01-11T22:37:56.567Z,64.80
2024-01-11T22:40:23.412Z,64.66
2024-01-11T22:42:50.090Z,65.06
2024-01-11T22:45:16.846Z,65.06
2024-01-11T22:47:43.594Z,65.05
2024-01-11T22:50:10.745Z,65.20
2024-01-11T22:52:37.960Z,65.12
2024-01-11T22:55:05.718Z,65.45
2024-01-11T22:57:33.093Z,65.33
2024-01-11T22:59:59.825Z,65.35
2024-01-11T23:02:27.233Z,65.17
2024-01-11T23:04:54.088Z,65.11
2024-01-11T23:07:20.778Z,65.10
2024-01-11T23:09:47.628Z,65.01
2024-01-11T23:12:14.356Z,65.08
2024-01-11T23:14:41.229Z,65.15
2024-01-11T23:17:07.891Z,65.20
2024-01-11T23:19:34.823Z,65.17
2024-01-11T23:22:01.636Z,65.24
2024-01-11T23:24:28.342Z,65.12
2024-01-11T23:26:55.327Z,65.06
2024-01-11T23:29:22.221Z,64.96
2024-01-11T23:31:49.416Z,65.25
2024-01-11T23:34:16.428Z,65.16
2024-01-11T23:36:43.385Z,65.27
2024-01-11T23:39:10.054Z,65.23
2024-01-11T23:41:36.809Z,65.24
2024-01-11T23:44:03.662Z,65.30
2024-01-11T23:46:30.494Z,65.40
2024-01-11T23:48:57.410Z,65.35
2024-01-11T23:51:24.424Z,65.43
2024-01-11T23:53:51.351Z,65.54
2024-01-11T23:56:18.179Z,65.44
2024-01-11T23:58:44.944Z,65.28
